createdAt,value
2022-11-03T00:02:46.358Z,99503.13
2022-11-03T00:05:51.480Z,99504.16
2022-11-03T00:08:42.410Z,99512.81
2022-11-03T00:11:28.648Z,99490.09
2022-11-03T00:14:15.115Z,99515.34
2022-11-03T00:17:01.206Z,99498.25
2022-11-03T00:19:47.463Z,99487.03
2022-11-03T00:22:33.928Z,99462.78
2022-11-03T00:25:20.419Z,99503.28
2022-11-03T00:28:06.713Z,99487.41
2022-11-03T00:30:53.004Z,99480.38
2022-11-03T00:33:40.376Z,99501.53
2022-11-03T00:36:32.103Z,99499.19
2022-11-03T00:39:18.705Z,99486.78
2022-11-03T00:42:05.047Z,99495.91
2022-11-03T00:44:51.247Z,99456.63
2022-11-03T00:47:57.714Z,99497.50
2022-11-03T00:50:44.401Z,99492.00
2022-11-03T00:53:32.296Z,99453.03
2022-11-03T00:56:22.097Z,99471.00
2022-11-03T00:59:09.983Z,99480.47
2022-11-03T01:01:56.806Z,99475.25
2022-11-03T01:05:01.717Z,99477.28
2022-11-03T01:07:48.027Z,99469.75
2022-11-03T01:10:36.617Z,99449.41
2022-11-03T01:13:23.067Z,99463.03
2022-11-03T01:16:09.548Z,99465.50
2022-11-03T01:18:55.808Z,99442.06
2022-11-03T01:21:43.657Z,99437.63
2022-11-03T01:24:29.934Z,99412.81
2022-11-03T01:27:18.975Z,99437.06
2022-11-03T01:30:05.598Z,99411.56
2022-11-03T01:32:52.492Z,99421.72
2022-11-03T01:35:38.889Z,99382.63
2022-11-03T01:38:25.196Z,99415.38
2022-11-03T01:41:15.808Z,99396.97
2022-11-03T01:44:35.075Z,99428.50
2022-11-03T01:47:28.161Z,99418.09
2022-11-03T01:50:18.751Z,99400.63
2022-11-03T01:53:05.351Z,99412.00
2022-11-03T01:55:52.025Z,99401.84
2022-11-03T01:58:41.469Z,99409.75
2022-11-03T02:01:28.531Z,99389.78
2022-11-03T02:04:23.966Z,99400.91
2022-11-03T02:07:35.512Z,99389.16
2022-11-03T02:10:23.693Z,99377.25
2022-11-03T02:13:18.459Z,99406.69
2022-11-03T02:16:05.297Z,99381.13
2022-11-03T02:18:53.287Z,99402.50
2022-11-03T02:21:56.206Z,99390.31
2022-11-03T02:25:02.100Z,99357.66
2022-11-03T02:27:48.924Z,99365.53
2022-11-03T02:31:01.249Z,99369.81
2022-11-03T02:34:25.542Z,99375.09
2022-11-03T02:37:22.020Z,99369.34
2022-11-03T02:40:13.709Z,99352.91
2022-11-03T02:43:01.943Z,99325.06
2022-11-03T02:45:50.588Z,99328.91
2022-11-03T02:48:37.487Z,99341.47
2022-11-03T02:51:24.977Z,99350.81
2022-11-03T02:54:21.753Z,99335.16
2022-11-03T02:57:18.643Z,99299.50
2022-11-03T03:00:09.351Z,99322.81
2022-11-03T03:03:09.352Z,99302.81
2022-11-03T03:06:05.107Z,99292.94
2022-11-03T03:08:57.283Z,99306.22
2022-11-03T03:11:47.494Z,99282.16
2022-11-03T03:14:39.295Z,99278.41
2022-11-03T03:17:44.390Z,99302.84
2022-11-03T03:20:50.847Z,99281.41
2022-11-03T03:23:47.996Z,99297.06
2022-11-03T03:26:43.148Z,99297.72
2022-11-03T03:29:37.787Z,99288.75
2022-11-03T03:32:27.944Z,99287.09
2022-11-03T03:35:19.005Z,99260.06
2022-11-03T03:38:09.867Z,99249.09
2022-11-03T03:40:59.756Z,99271.56
2022-11-03T03:43:46.474Z,99244.72
2022-11-03T03:46:37.928Z,99251.63
2022-11-03T03:49:24.683Z,99223.13
2022-11-03T03:52:11.630Z,99185.13
2022-11-03T03:54:57.789Z,99249.94
2022-11-03T03:57:44.855Z,99177.28
2022-11-03T04:00:31.118Z,99247.06
2022-11-03T04:03:20.296Z,99235.16
2022-11-03T04:06:06.780Z,99221.47
2022-11-03T04:08:52.984Z,99224.63
2022-11-03T04:11:58.218Z,99193.28
2022-11-03T04:15:03.403Z,99180.41
2022-11-03T04:18:09.234Z,99186.25
2022-11-03T04:21:14.495Z,99186.88
2022-11-03T04:24:00.774Z,99213.09
2022-11-03T04:26:47.179Z,99207.00
2022-11-03T04:29:33.728Z,99191.22
2022-11-03T04:32:20.203Z,99178.31
2022-11-03T04:35:27.772Z,99187.03
2022-11-03T04:38:13.810Z,99213.09
2022-11-03T04:41:00.206Z,99191.34
2022-11-03T04:43:47.244Z,99188.81
2022-11-03T04:46:33.404Z,99168.88
2022-11-03T04:49:23.142Z,99194.09
2022-11-03T04:52:19.820Z,99189.66
2022-11-03T04:55:10.313Z,99199.03
2022-11-03T04:58:07.043Z,99167.59
2022-11-03T05:00:56.606Z,99189.88
2022-11-03T05:03:44.828Z,99192.84
2022-11-03T05:06:31.473Z,99170.63
2022-11-03T05:09:23.038Z,99148.25
2022-11-03T05:12:10.104Z,99137.94
2022-11-03T05:14:58.914Z,99147.69
2022-11-03T05:17:45.335Z,99142.84
2022-11-03T05:20:37.467Z,99155.94
2022-11-03T05:23:23.959Z,99124.81
2022-11-03T05:26:25.604Z,99134.13
2022-11-03T05:29:29.247Z,99144.56
2022-11-03T05:32:24.481Z,99117.47
2022-11-03T05:35:22.962Z,99073.47
2022-11-03T05:38:14.737Z,99130.78
2022-11-03T05:41:01.654Z,99079.50
2022-11-03T05:43:56.394Z,99129.03
2022-11-03T05:46:42.736Z,99043.16
2022-11-03T05:49:30.132Z,99096.00
2022-11-03T05:52:22.387Z,99115.97
2022-11-03T05:55:27.231Z,99071.72
2022-11-03T05:58:29.014Z,99111.31
2022-11-03T06:01:34.328Z,99105.88
2022-11-03T06:04:38.659Z,99060.72
2022-11-03T06:07:29.853Z,99097.88
2022-11-03T06:10:35.915Z,99074.81
2022-11-03T06:13:37.353Z,99099.69
2022-11-03T06:16:40.131Z,99089.34
2022-11-03T06:19:36.844Z,99066.38
2022-11-03T06:22:35.334Z,99065.72
2022-11-03T06:25:27.947Z,99066.88
2022-11-03T06:28:30.264Z,99071.59
2022-11-03T06:31:23.154Z,99071.81
2022-11-03T06:34:22.663Z,99082.13
2022-11-03T06:37:16.587Z,99054.50
2022-11-03T06:40:15.152Z,99086.53
2022-11-03T06:43:14.625Z,99034.97
2022-11-03T06:46:05.948Z,99057.63
2022-11-03T06:48:54.903Z,99058.13
2022-11-03T06:51:41.407Z,99028.66
2022-11-03T06:54:27.984Z,99057.75
2022-11-03T06:57:17.330Z,99025.81
2022-11-03T07:00:33.629Z,99066.81
2022-11-03T07:03:27.159Z,99030.84
2022-11-03T07:06:24.602Z,99050.09
2022-11-03T07:09:16.763Z,99026.09
2022-11-03T07:12:03.399Z,99020.50
2022-11-03T07:14:49.757Z,99004.25
2022-11-03T07:17:35.936Z,99012.94
2022-11-03T07:20:22.210Z,98971.72
2022-11-03T07:23:15.386Z,99036.00
2022-11-03T07:26:02.043Z,99025.00
2022-11-03T07:28:48.554Z,99029.69
2022-11-03T07:31:34.704Z,99019.66
2022-11-03T07:34:25.386Z,99031.03
2022-11-03T07:37:20.166Z,99026.03
2022-11-03T07:40:13.258Z,99023.03
2022-11-03T07:43:02.091Z,98985.25
2022-11-03T07:45:49.547Z,99013.34
2022-11-03T07:48:46.468Z,99000.69
2022-11-03T07:51:34.968Z,98951.47
2022-11-03T07:54:26.909Z,98974.06
2022-11-03T07:57:16.476Z,98992.53
2022-11-03T08:00:10.772Z,98991.78
2022-11-03T08:03:01.688Z,98955.63
2022-11-03T08:05:48.084Z,98952.44
2022-11-03T08:08:34.643Z,98954.34
2022-11-03T08:11:24.686Z,98932.03
2022-11-03T08:14:14.602Z,98932.09
2022-11-03T08:17:01.045Z,98948.72
2022-11-03T08:19:47.176Z,98904.94
2022-11-03T08:22:33.575Z,98905.00
2022-11-03T08:25:20.067Z,98907.81
2022-11-03T08:28:06.303Z,98912.25
2022-11-03T08:30:52.749Z,98900.25
2022-11-03T08:33:38.869Z,98881.38
2022-11-03T08:36:25.518Z,98916.00
2022-11-03T08:39:11.998Z,98881.59
2022-11-03T08:41:58.225Z,98887.72
2022-11-03T08:44:44.348Z,98897.28
2022-11-03T08:47:30.912Z,98874.13
2022-11-03T08:50:17.440Z,98899.22
2022-11-03T08:53:03.925Z,98871.75
2022-11-03T08:55:50.431Z,98892.47
2022-11-03T08:58:36.649Z,98883.00
2022-11-03T09:01:22.902Z,98877.84
2022-11-03T09:04:09.326Z,98875.28
2022-11-03T09:06:55.855Z,98882.19
2022-11-03T09:12:48.774Z,98875.28
2022-11-03T09:15:35.308Z,98866.59
2022-11-03T09:18:22.677Z,98849.34
2022-11-03T09:21:09.023Z,98871.69
2022-11-03T09:23:55.889Z,98872.53
2022-11-03T09:26:42.316Z,98850.97
2022-11-03T09:29:36.393Z,98862.16
2022-11-03T09:32:32.361Z,98840.56
2022-11-03T09:35:18.758Z,98862.84
2022-11-03T09:38:07.672Z,98852.50
2022-11-03T09:40:55.223Z,98825.63
2022-11-03T09:43:41.637Z,98820.34
2022-11-03T09:46:29.734Z,98814.16
2022-11-03T09:49:16.931Z,98811.34
2022-11-03T09:52:04.503Z,98814.69
2022-11-03T09:54:54.207Z,98813.63
2022-11-03T09:57:40.834Z,98807.53
2022-11-03T10:00:27.455Z,98797.16
2022-11-03T10:03:18.516Z,98790.91
2022-11-03T10:06:05.091Z,98799.47
2022-11-03T10:08:51.702Z,98802.69
2022-11-03T10:11:38.503Z,98759.47
2022-11-03T10:14:24.677Z,98793.59
2022-11-03T10:17:18.017Z,98787.56
2022-11-03T10:20:11.208Z,98788.09
2022-11-03T10:22:57.711Z,98769.09
2022-11-03T10:25:45.348Z,98772.22
2022-11-03T10:28:32.014Z,98760.03
2022-11-03T10:31:21.198Z,98771.16
2022-11-03T10:34:39.738Z,98766.44
2022-11-03T10:37:27.357Z,98759.53
2022-11-03T10:40:47.681Z,98744.75
2022-11-03T10:43:34.818Z,98746.31
2022-11-03T10:46:44.626Z,98712.22
2022-11-03T10:49:32.466Z,98723.44
2022-11-03T10:52:24.931Z,98712.59
2022-11-03T10:55:11.504Z,98705.03
2022-11-03T10:57:58.509Z,98721.19
2022-11-03T11:00:45.379Z,98695.25
2022-11-03T11:03:32.629Z,98709.78
2022-11-03T11:06:26.560Z,98695.13
2022-11-03T11:09:16.683Z,98689.00
2022-11-03T11:12:19.040Z,98683.88
2022-11-03T11:15:44.299Z,98677.13
2022-11-03T11:18:30.716Z,98671.09
2022-11-03T11:21:20.004Z,98671.03
2022-11-03T11:24:10.384Z,98659.63
2022-11-03T11:26:56.893Z,98656.13
2022-11-03T11:29:43.479Z,98629.69
2022-11-03T11:32:41.739Z,98652.22
2022-11-03T11:35:28.201Z,98644.44
2022-11-03T11:38:48.585Z,98644.25
2022-11-03T11:42:13.854Z,98639.69
2022-11-03T11:45:03.035Z,98614.28
2022-11-03T11:47:50.499Z,98618.47
2022-11-03T11:50:36.959Z,98591.03
2022-11-03T11:53:30.717Z,98588.50
2022-11-03T11:56:18.922Z,98599.56
2022-11-03T11:59:05.055Z,98577.00
2022-11-03T12:01:53.575Z,98583.78
2022-11-03T12:04:40.075Z,98550.38
2022-11-03T12:07:36.655Z,98565.88
2022-11-03T12:10:30.113Z,98578.38
2022-11-03T12:13:36.998Z,98575.78
2022-11-03T12:16:36.618Z,98570.69
2022-11-03T12:19:42.612Z,98566.09
2022-11-03T12:22:29.352Z,98554.94
2022-11-03T12:25:36.568Z,98543.00
2022-11-03T12:28:34.168Z,98546.38
2022-11-03T12:31:20.909Z,98535.25
2022-11-03T12:34:07.446Z,98536.34
2022-11-03T12:36:56.320Z,98507.19
2022-11-03T12:39:42.685Z,98492.69
2022-11-03T12:42:28.913Z,98503.00
2022-11-03T12:45:15.336Z,98484.38
2022-11-03T12:48:01.644Z,98504.00
2022-11-03T12:50:47.997Z,98467.22
2022-11-03T12:53:34.376Z,98501.53
2022-11-03T12:56:20.699Z,98474.84
2022-11-03T12:59:07.860Z,98459.31
2022-11-03T13:01:54.621Z,98456.63
2022-11-03T13:04:41.194Z,98455.41
2022-11-03T13:07:33.481Z,98455.09
2022-11-03T13:10:21.323Z,98465.34
2022-11-03T13:13:07.869Z,98403.31
2022-11-03T13:15:54.927Z,98450.28
2022-11-03T13:18:41.425Z,98442.66
2022-11-03T13:21:28.142Z,98429.16
2022-11-03T13:24:14.329Z,98421.31
2022-11-03T13:27:00.558Z,98420.63
2022-11-03T13:29:46.820Z,98408.72
2022-11-03T13:32:33.311Z,98408.66
2022-11-03T13:35:19.964Z,98401.97
2022-11-03T13:38:06.253Z,98386.75
2022-11-03T13:40:57.755Z,98396.13
2022-11-03T13:43:44.477Z,98357.66
2022-11-03T13:46:30.866Z,98371.47
2022-11-03T13:52:26.800Z,98340.47
2022-11-03T14:01:25.903Z,98326.53
2022-11-03T14:07:19.210Z,98325.88
2022-11-03T14:10:06.053Z,98306.78
2022-11-03T14:12:52.620Z,98325.34
2022-11-03T14:15:38.935Z,98322.31
2022-11-03T14:18:25.329Z,98313.19
2022-11-03T14:21:11.646Z,98301.16
2022-11-03T14:23:58.102Z,98269.81
2022-11-03T14:26:44.364Z,98291.41
2022-11-03T14:29:30.794Z,98285.34
2022-11-03T14:32:18.155Z,98277.13
2022-11-03T14:35:05.157Z,98287.34
2022-11-03T14:37:51.724Z,98285.84
2022-11-03T14:40:56.520Z,98255.09
2022-11-03T14:43:42.719Z,98261.91
2022-11-03T14:46:29.564Z,98247.06
2022-11-03T14:49:15.990Z,98245.38
2022-11-03T14:52:04.429Z,98233.19
2022-11-03T14:54:52.081Z,98234.19
2022-11-03T14:57:38.500Z,98235.06
2022-11-03T15:00:24.802Z,98226.47
2022-11-03T15:03:11.284Z,98218.81
2022-11-03T15:05:57.559Z,98189.88
2022-11-03T15:08:43.991Z,98204.38
2022-11-03T15:11:30.715Z,98199.13
2022-11-03T15:14:17.018Z,98179.22
2022-11-03T15:17:03.242Z,98200.50
2022-11-03T15:19:49.619Z,98204.94
2022-11-03T15:25:42.026Z,98187.31
2022-11-03T15:28:28.516Z,98197.22
2022-11-03T15:31:14.819Z,98182.13
2022-11-03T15:34:04.426Z,98181.34
2022-11-03T15:36:54.195Z,98183.44
2022-11-03T15:39:41.557Z,98163.97
2022-11-03T15:42:28.312Z,98180.31
2022-11-03T15:45:16.377Z,98159.00
2022-11-03T15:48:04.453Z,98150.63
2022-11-03T15:50:51.620Z,98165.19
2022-11-03T15:53:38.748Z,98121.19
2022-11-03T15:56:26.096Z,98107.59
2022-11-03T16:03:38.837Z,98092.94
2022-11-03T16:06:46.721Z,98081.75
2022-11-03T16:09:31.608Z,98093.75
2022-11-03T16:12:17.896Z,98097.28
2022-11-03T16:15:04.690Z,98099.13
2022-11-03T16:17:51.099Z,98076.03
2022-11-03T16:20:37.640Z,98080.28
2022-11-03T16:23:24.680Z,98068.22
2022-11-03T16:26:11.127Z,98040.09
2022-11-03T16:28:58.385Z,98040.34
2022-11-03T16:31:46.834Z,98066.88
2022-11-03T16:34:33.113Z,98027.41
2022-11-03T16:37:19.463Z,98028.97
2022-11-03T16:40:06.460Z,98042.94
2022-11-03T16:42:52.612Z,98027.69
2022-11-03T16:45:38.943Z,98039.69
2022-11-03T16:48:25.168Z,98065.34
2022-11-03T16:51:11.200Z,98055.94
2022-11-03T16:53:59.584Z,98056.81
2022-11-03T16:56:50.569Z,98017.66
2022-11-03T16:59:40.016Z,98033.63
2022-11-03T17:02:27.887Z,98052.97
2022-11-03T17:05:17.390Z,98043.38
2022-11-03T17:08:03.871Z,98059.81
2022-11-03T17:10:50.443Z,98082.22
2022-11-03T17:13:36.737Z,98063.59
2022-11-03T17:16:23.225Z,98074.81
2022-11-03T17:19:10.019Z,98075.63
2022-11-03T17:21:57.113Z,98038.16
2022-11-03T17:24:43.849Z,98052.50
2022-11-03T17:27:41.692Z,98070.50
2022-11-03T17:30:30.807Z,98085.09
2022-11-03T17:33:19.547Z,98055.09
2022-11-03T17:36:06.348Z,98015.50
2022-11-03T17:38:52.884Z,98031.78
2022-11-03T17:41:39.090Z,98040.72
2022-11-03T17:44:25.310Z,98047.84
2022-11-03T17:47:11.767Z,98038.44
2022-11-03T17:49:57.992Z,97984.00
2022-11-03T17:52:46.633Z,98016.50
2022-11-03T17:55:33.222Z,97980.00
2022-11-03T17:58:32.411Z,98017.56
2022-11-03T18:01:25.049Z,98003.03
2022-11-03T18:07:19.228Z,97981.69
2022-11-03T18:10:06.811Z,97959.47
2022-11-03T18:13:15.555Z,97990.19
2022-11-03T18:16:11.893Z,97979.00
2022-11-03T18:18:58.707Z,97950.00
2022-11-03T18:21:45.447Z,98001.38
2022-11-03T18:24:33.175Z,97980.69
2022-11-03T18:27:24.963Z,97964.41
2022-11-03T18:30:16.640Z,98004.66
2022-11-03T18:33:03.230Z,97986.81
2022-11-03T18:35:49.737Z,97984.31
2022-11-03T18:38:37.170Z,98012.56
2022-11-03T18:41:41.925Z,97987.66
2022-11-03T18:44:29.969Z,98000.53
2022-11-03T18:47:16.824Z,97974.56
2022-11-03T18:50:03.888Z,97974.56
2022-11-03T18:52:51.924Z,97959.34
2022-11-03T18:55:38.438Z,97999.19
2022-11-03T18:58:25.743Z,97994.84
2022-11-03T19:01:21.965Z,97984.81
2022-11-03T19:04:14.852Z,97961.63
2022-11-03T19:07:02.838Z,97952.25
2022-11-03T19:09:49.382Z,97941.03
2022-11-03T19:12:39.211Z,97935.03
2022-11-03T19:15:25.995Z,97929.91
2022-11-03T19:18:13.089Z,97917.75
2022-11-03T19:20:59.530Z,97921.06
2022-11-03T19:23:48.176Z,97894.63
2022-11-03T19:26:43.704Z,97903.41
2022-11-03T19:29:34.377Z,97917.75
2022-11-03T19:32:27.696Z,97933.16
2022-11-03T19:35:19.119Z,97940.13
2022-11-03T19:38:12.155Z,97924.72
2022-11-03T19:41:16.910Z,97889.97
2022-11-03T19:44:09.241Z,97902.78
2022-11-03T19:46:55.773Z,97880.56
2022-11-03T19:49:42.342Z,97903.72
2022-11-03T19:52:30.338Z,97899.28
2022-11-03T19:55:18.811Z,97863.25
2022-11-03T19:58:15.686Z,97893.75
2022-11-03T20:01:08.226Z,97891.16
2022-11-03T20:03:55.017Z,97876.09
2022-11-03T20:06:41.525Z,97873.25
2022-11-03T20:12:20.041Z,97889.50
2022-11-03T20:15:19.019Z,97900.84
2022-11-03T20:18:06.470Z,97887.38
2022-11-03T20:20:52.888Z,97887.19
2022-11-03T20:23:39.332Z,97878.06
2022-11-03T20:26:26.769Z,97859.22
2022-11-03T20:29:15.048Z,97890.75
2022-11-03T20:32:01.131Z,97860.19
2022-11-03T20:34:47.721Z,97863.66
2022-11-03T20:37:34.058Z,97868.88
2022-11-03T20:40:23.716Z,97890.06
2022-11-03T20:43:26.908Z,97847.25
2022-11-03T20:46:24.583Z,97880.38
2022-11-03T20:49:10.956Z,97880.50
2022-11-03T20:51:57.202Z,97866.78
2022-11-03T20:54:43.469Z,97894.97
2022-11-03T20:57:29.516Z,97882.97
2022-11-03T21:00:22.186Z,97873.69
2022-11-03T21:03:58.388Z,97888.16
2022-11-03T21:06:46.862Z,97825.09
2022-11-03T21:09:33.042Z,97822.53
2022-11-03T21:12:19.497Z,97871.78
2022-11-03T21:15:35.550Z,97865.59
2022-11-03T21:18:40.380Z,97874.72
2022-11-03T21:21:26.659Z,97875.38
2022-11-03T21:24:13.250Z,97888.06
2022-11-03T21:26:59.611Z,97882.66
2022-11-03T21:29:58.930Z,97896.78
2022-11-03T21:32:46.150Z,97897.50
2022-11-03T21:35:32.347Z,97892.22
2022-11-03T21:38:19.181Z,97951.06
2022-11-03T21:41:26.308Z,97952.75
2022-11-03T21:44:15.287Z,97938.09
2022-11-03T21:47:01.805Z,97945.00
2022-11-03T21:49:49.268Z,97902.16
2022-11-03T21:52:35.756Z,97941.72
2022-11-03T21:55:22.249Z,97916.22
2022-11-03T21:58:09.031Z,97923.88
2022-11-03T22:01:01.032Z,97906.06
2022-11-03T22:03:47.349Z,97918.94
2022-11-03T22:06:33.639Z,97933.47
2022-11-03T22:09:19.921Z,97937.91
2022-11-03T22:12:06.670Z,97974.63
2022-11-03T22:15:11.917Z,97974.63
2022-11-03T22:18:02.681Z,97983.59
2022-11-03T22:21:07.574Z,97998.97
2022-11-03T22:24:13.784Z,97975.25
2022-11-03T22:27:00.513Z,97999.28
2022-11-03T22:30:05.458Z,97999.22
2022-11-03T22:32:53.795Z,97967.63
2022-11-03T22:35:59.085Z,97996.75
2022-11-03T22:39:04.089Z,98043.25
2022-11-03T22:42:08.972Z,98063.19
2022-11-03T22:45:27.485Z,98046.22
2022-11-03T22:48:13.854Z,98038.59
2022-11-03T22:51:09.122Z,98073.75
2022-11-03T22:54:10.487Z,98065.28
2022-11-03T22:56:56.922Z,98048.06
2022-11-03T22:59:43.311Z,98063.59
2022-11-03T23:02:29.677Z,98065.47
2022-11-03T23:05:16.063Z,98055.28
2022-11-03T23:08:02.633Z,98065.56
2022-11-03T23:10:49.200Z,98085.44
2022-11-03T23:13:36.386Z,98087.88
2022-11-03T23:16:25.516Z,98090.47
2022-11-03T23:19:32.433Z,98099.31
2022-11-03T23:22:18.656Z,98107.84
2022-11-03T23:25:05.671Z,98115.38
2022-11-03T23:27:53.001Z,98076.75
2022-11-03T23:30:39.487Z,98076.53
2022-11-03T23:33:25.961Z,98072.25
2022-11-03T23:36:14.590Z,98073.22
2022-11-03T23:39:01.942Z,98078.25
2022-11-03T23:41:50.336Z,98053.53
2022-11-03T23:45:08.898Z,98049.25
2022-11-03T23:48:13.787Z,98085.19
2022-11-03T23:50:59.832Z,98075.09
2022-11-03T23:53:47.272Z,98057.16
2022-11-03T23:56:58.129Z,98088.88
